createdAt,value
2022-11-17T00:17:41.808Z,10.6
2022-11-17T00:37:46.687Z,10.9
2022-11-17T00:47:48.545Z,10.8
2022-11-17T00:57:51.136Z,10.7
2022-11-17T01:07:53.351Z,10.6
2022-11-17T01:17:55.973Z,10.7
2022-11-17T01:27:58.003Z,10.7
2022-11-17T01:38:00.474Z,10.7
2022-11-17T01:48:02.501Z,10.6
2022-11-17T01:58:04.853Z,10.4
2022-11-17T02:08:07.204Z,10.3
2022-11-17T02:18:09.627Z,10.2
2022-11-17T02:28:11.989Z,10.1
2022-11-17T02:38:13.842Z,10.1
2022-11-17T02:48:16.266Z,10.1
2022-11-17T02:58:18.801Z,10.1
2022-11-17T03:08:21.209Z,10.1
2022-11-17T03:18:22.878Z,10
2022-11-17T03:28:24.509Z,10
2022-11-17T03:38:26.557Z,10
2022-11-17T03:48:28.282Z,10.1
2022-11-17T03:58:30.404Z,10
2022-11-17T04:08:32.779Z,10.1
2022-11-17T04:18:34.602Z,10
2022-11-17T04:28:37.156Z,10.1
2022-11-17T04:38:39.090Z,10.1
2022-11-17T04:48:41.225Z,10.1
2022-11-17T04:58:43.483Z,10.1
2022-11-17T05:08:45.751Z,10.2
2022-11-17T05:18:48.168Z,10.1
2022-11-17T05:28:50.322Z,10.2
2022-11-17T05:38:52.914Z,10.1
2022-11-17T05:48:54.896Z,10.1
2022-11-17T05:58:57.014Z,10.1
2022-11-17T06:08:59.364Z,10.2
2022-11-17T06:19:01.318Z,10.2
2022-11-17T06:29:03.888Z,10.1
2022-11-17T06:39:05.811Z,10
2022-11-17T06:49:08.249Z,10
2022-11-17T06:59:10.448Z,10.1
2022-11-17T07:09:12.874Z,10.1
2022-11-17T07:19:15.277Z,10.2
2022-11-17T07:39:21.606Z,10.3
2022-11-17T07:49:21.063Z,10.3
2022-11-17T07:59:23.399Z,10.5
2022-11-17T08:09:25.369Z,10.4
2022-11-17T08:19:27.923Z,10.5
2022-11-17T08:29:30.371Z,10.5
2022-11-17T08:39:32.488Z,10.4
2022-11-17T08:49:34.964Z,10.4
2022-11-17T08:59:37.396Z,10.4
2022-11-17T09:09:39.627Z,10.2
2022-11-17T09:19:41.656Z,10.2
2022-11-17T09:29:44.071Z,10
2022-11-17T09:39:46.591Z,10.1
2022-11-17T09:49:52.255Z,10.2
2022-11-17T09:59:50.904Z,10.6
2022-11-17T10:09:52.891Z,10.9
2022-11-17T10:29:57.074Z,11
2022-11-17T10:39:59.062Z,11
2022-11-17T10:50:01.636Z,11.2
2022-11-17T11:00:03.396Z,11.4
2022-11-17T11:10:05.707Z,11.4
2022-11-17T11:20:07.631Z,11.5
2022-11-17T11:30:09.320Z,11.8
2022-11-17T11:40:11.612Z,11.9
2022-11-17T11:50:13.434Z,11.9
2022-11-17T12:00:15.118Z,11.9
2022-11-17T12:10:17.545Z,11.9
2022-11-17T12:20:19.640Z,11.8
2022-11-17T12:50:25.363Z,11.6
2022-11-17T13:20:31.525Z,11.3
2022-11-17T13:30:33.422Z,11.3
2022-11-17T13:40:35.064Z,11.1
2022-11-17T13:50:36.726Z,11
2022-11-17T14:30:52.843Z,10.7
2022-11-17T14:40:55.071Z,10.8
2022-11-17T14:50:57.313Z,10.9
2022-11-17T15:31:06.937Z,10.8
2022-11-17T15:51:11.602Z,10.8
2022-11-17T16:31:19.740Z,11
2022-11-17T17:01:27.288Z,10.6
2022-11-17T17:51:38.752Z,9.5
2022-11-17T18:11:42.923Z,9.2
2022-11-17T18:21:44.960Z,9
2022-11-17T18:41:49.081Z,8.7
2022-11-17T19:01:53.202Z,8.5
2022-11-17T19:11:55.610Z,8.5
2022-11-17T19:21:57.866Z,8.5
2022-11-17T19:32:00.021Z,8.6
2022-11-17T19:52:04.223Z,8.6
2022-11-17T20:02:06.248Z,8.7
2022-11-17T20:12:08.395Z,8.7
2022-11-17T20:22:11.035Z,8.5
2022-11-17T20:32:12.754Z,8.4
2022-11-17T20:42:14.406Z,8.3
2022-11-17T20:52:17.040Z,8.2
2022-11-17T21:12:21.200Z,8.1
2022-11-17T21:32:25.767Z,7.9
2022-11-17T21:42:27.883Z,7.9
2022-11-17T21:52:30.360Z,7.9
2022-11-17T22:02:32.800Z,7.8
2022-11-17T22:12:35.171Z,7.7
2022-11-17T22:22:37.764Z,7.6
2022-11-17T22:32:44.059Z,7.5
2022-11-17T22:42:42.171Z,7.5
2022-11-17T22:52:44.556Z,7.5
2022-11-17T23:02:46.770Z,7.5
2022-11-17T23:12:48.498Z,7.5
2022-11-17T23:22:50.467Z,7.5
2022-11-17T23:32:52.895Z,7.5
2022-11-17T23:42:54.628Z,7.4
2022-11-17T23:52:56.706Z,7.4
